Minneapolis, Minnesota
Traffic Map
Current Weather Conditions
Minneapolis, Minnesota
Overcast
Overcast
35°
Feels Like: 25°
Wind Chill: 25° Ceiling: 4700
Heat Index: 35° Visibility: 9mi
Dew Point: 24° Wind: 17mph
Humidity: 64% Direction: 310° (NW)
Pressure: 29.78in Gusts: 0mph
Raw Report DataKMSP 220353Z 31015KT 9SM OVC047 02/M04 A2978 RMK AO2 SNE48 SLP093 P0000 T00171044
Traffic Incident Summary
Active as of:
Severity:
Category:
InformationThere was an issue retrieving the traffic information for this location. Please try a different location or try again shortly.
Advertisements
Track Severe Weather on mobile